sensor_id;sensor_type;location;lat;lon;timestamp;temperature;humidity
51637;DHT22;37713;53.254;6.460;2024-01-30T00:02:00;5.20;99.90
51637;DHT22;37713;53.254;6.460;2024-01-30T00:04:25;5.20;99.90
51637;DHT22;37713;53.254;6.460;2024-01-30T00:06:51;5.20;99.90
51637;DHT22;37713;53.254;6.460;2024-01-30T00:09:18;5.10;99.90
51637;DHT22;37713;53.254;6.460;2024-01-30T00:11:45;5.10;99.90
51637;DHT22;37713;53.254;6.460;2024-01-30T00:14:11;5.10;99.90
51637;DHT22;37713;53.254;6.460;2024-01-30T00:16:36;5.10;99.90
51637;DHT22;37713;53.254;6.460;2024-01-30T00:19:02;5.20;99.90
51637;DHT22;37713;53.254;6.460;2024-01-30T00:21:29;5.20;99.90
51637;DHT22;37713;53.254;6.460;2024-01-30T00:23:55;5.20;99.90
51637;DHT22;37713;53.254;6.460;2024-01-30T00:26:20;5.20;99.90
51637;DHT22;37713;53.254;6.460;2024-01-30T00:28:46;5.20;99.90
51637;DHT22;37713;53.254;6.460;2024-01-30T00:31:12;5.20;99.90
51637;DHT22;37713;53.254;6.460;2024-01-30T00:33:38;5.20;99.90
51637;DHT22;37713;53.254;6.460;2024-01-30T00:36:06;5.20;99.90
51637;DHT22;37713;53.254;6.460;2024-01-30T00:38:33;5.20;99.90
51637;DHT22;37713;53.254;6.460;2024-01-30T00:40:58;5.20;99.90
51637;DHT22;37713;53.254;6.460;2024-01-30T00:43:24;5.20;99.90
51637;DHT22;37713;53.254;6.460;2024-01-30T00:45:53;5.10;99.90
51637;DHT22;37713;53.254;6.460;2024-01-30T00:48:19;5.10;99.90
51637;DHT22;37713;53.254;6.460;2024-01-30T00:50:45;5.10;99.90
51637;DHT22;37713;53.254;6.460;2024-01-30T00:53:11;5.10;99.90
51637;DHT22;37713;53.254;6.460;2024-01-30T00:55:37;5.10;99.90
51637;DHT22;37713;53.254;6.460;2024-01-30T00:58:03;5.10;99.90
51637;DHT22;37713;53.254;6.460;2024-01-30T01:00:29;5.10;99.90
51637;DHT22;37713;53.254;6.460;2024-01-30T01:03:04;5.10;99.90
51637;DHT22;37713;53.254;6.460;2024-01-30T01:05:30;5.10;99.90
51637;DHT22;37713;53.254;6.460;2024-01-30T01:07:56;5.10;99.90
51637;DHT22;37713;53.254;6.460;2024-01-30T01:10:21;5.00;99.90
51637;DHT22;37713;53.254;6.460;2024-01-30T01:12:48;5.00;99.90
51637;DHT22;37713;53.254;6.460;2024-01-30T01:15:14;5.00;99.90
51637;DHT22;37713;53.254;6.460;2024-01-30T01:17:40;5.00;99.90
51637;DHT22;37713;53.254;6.460;2024-01-30T01:20:06;5.00;99.90
51637;DHT22;37713;53.254;6.460;2024-01-30T01:22:33;5.00;99.90
51637;DHT22;37713;53.254;6.460;2024-01-30T01:24:59;5.00;99.90
51637;DHT22;37713;53.254;6.460;2024-01-30T01:27:25;4.90;99.90
51637;DHT22;37713;53.254;6.460;2024-01-30T01:29:52;4.90;99.90
51637;DHT22;37713;53.254;6.460;2024-01-30T01:32:18;4.90;99.90
51637;DHT22;37713;53.254;6.460;2024-01-30T01:34:44;4.90;99.90
51637;DHT22;37713;53.254;6.460;2024-01-30T01:37:10;4.80;99.90
51637;DHT22;37713;53.254;6.460;2024-01-30T01:39:36;4.80;99.90
51637;DHT22;37713;53.254;6.460;2024-01-30T01:42:02;4.80;99.90
51637;DHT22;37713;53.254;6.460;2024-01-30T01:44:28;4.80;99.90
51637;DHT22;37713;53.254;6.460;2024-01-30T01:46:55;4.80;99.90
51637;DHT22;37713;53.254;6.460;2024-01-30T01:49:24;4.70;99.90
51637;DHT22;37713;53.254;6.460;2024-01-30T01:51:51;4.70;99.90
51637;DHT22;37713;53.254;6.460;2024-01-30T01:54:19;4.70;99.90
51637;DHT22;37713;53.254;6.460;2024-01-30T01:56:45;4.70;99.90
51637;DHT22;37713;53.254;6.460;2024-01-30T01:59:11;4.70;99.90
51637;DHT22;37713;53.254;6.460;2024-01-30T02:01:37;4.70;99.90
51637;DHT22;37713;53.254;6.460;2024-01-30T02:04:04;4.60;99.90
51637;DHT22;37713;53.254;6.460;2024-01-30T02:06:29;4.60;99.90
51637;DHT22;37713;53.254;6.460;2024-01-30T02:08:55;4.60;99.90
51637;DHT22;37713;53.254;6.460;2024-01-30T02:11:22;4.60;99.90
51637;DHT22;37713;53.254;6.460;2024-01-30T02:13:49;4.60;99.90
51637;DHT22;37713;53.254;6.460;2024-01-30T02:16:16;4.60;99.90
51637;DHT22;37713;53.254;6.460;2024-01-30T02:18:43;4.60;99.90
51637;DHT22;37713;53.254;6.460;2024-01-30T02:21:12;4.60;99.90
51637;DHT22;37713;53.254;6.460;2024-01-30T02:23:38;4.70;99.90
51637;DHT22;37713;53.254;6.460;2024-01-30T02:26:05;4.70;99.90
51637;DHT22;37713;53.254;6.460;2024-01-30T02:28:30;4.70;99.90
51637;DHT22;37713;53.254;6.460;2024-01-30T02:30:56;4.80;99.90
51637;DHT22;37713;53.254;6.460;2024-01-30T02:33:22;4.70;99.90
51637;DHT22;37713;53.254;6.460;2024-01-30T02:35:48;4.80;99.90
51637;DHT22;37713;53.254;6.460;2024-01-30T02:38:15;4.80;99.90
51637;DHT22;37713;53.254;6.460;2024-01-30T02:40:40;4.80;99.90
51637;DHT22;37713;53.254;6.460;2024-01-30T02:43:06;4.80;99.90
51637;DHT22;37713;53.254;6.460;2024-01-30T02:45:32;4.80;99.90
51637;DHT22;37713;53.254;6.460;2024-01-30T02:47:58;4.80;99.90
51637;DHT22;37713;53.254;6.460;2024-01-30T02:50:23;4.80;99.90
51637;DHT22;37713;53.254;6.460;2024-01-30T02:52:49;4.80;99.90
51637;DHT22;37713;53.254;6.460;2024-01-30T02:55:15;4.90;99.90
51637;DHT22;37713;53.254;6.460;2024-01-30T02:57:43;4.90;99.90
51637;DHT22;37713;53.254;6.460;2024-01-30T03:00:09;4.90;99.90
51637;DHT22;37713;53.254;6.460;2024-01-30T03:02:36;4.90;99.90
51637;DHT22;37713;53.254;6.460;2024-01-30T03:05:02;4.90;99.90
51637;DHT22;37713;53.254;6.460;2024-01-30T03:07:29;4.90;99.90
51637;DHT22;37713;53.254;6.460;2024-01-30T03:09:55;4.90;99.90
51637;DHT22;37713;53.254;6.460;2024-01-30T03:12:21;4.80;99.90
51637;DHT22;37713;53.254;6.460;2024-01-30T03:14:47;4.80;99.90
51637;DHT22;37713;53.254;6.460;2024-01-30T03:17:14;4.80;99.90
51637;DHT22;37713;53.254;6.460;2024-01-30T03:19:40;4.80;99.90
51637;DHT22;37713;53.254;6.460;2024-01-30T03:22:06;4.80;99.90
51637;DHT22;37713;53.254;6.460;2024-01-30T03:24:32;4.70;99.90
51637;DHT22;37713;53.254;6.460;2024-01-30T03:26:57;4.70;99.90
51637;DHT22;37713;53.254;6.460;2024-01-30T03:29:23;4.70;99.90
51637;DHT22;37713;53.254;6.460;2024-01-30T03:31:49;4.80;99.90
51637;DHT22;37713;53.254;6.460;2024-01-30T03:34:15;4.70;99.90
51637;DHT22;37713;53.254;6.460;2024-01-30T03:36:40;4.70;99.90
51637;DHT22;37713;53.254;6.460;2024-01-30T03:39:06;4.70;99.90
51637;DHT22;37713;53.254;6.460;2024-01-30T03:41:32;4.70;99.90
51637;DHT22;37713;53.254;6.460;2024-01-30T03:43:58;4.70;99.90
51637;DHT22;37713;53.254;6.460;2024-01-30T03:46:23;4.70;99.90
51637;DHT22;37713;53.254;6.460;2024-01-30T03:48:50;4.70;99.90
51637;DHT22;37713;53.254;6.460;2024-01-30T03:51:15;4.70;99.90
51637;DHT22;37713;53.254;6.460;2024-01-30T03:53:45;4.80;99.90
51637;DHT22;37713;53.254;6.460;2024-01-30T03:56:13;4.80;99.90
51637;DHT22;37713;53.254;6.460;2024-01-30T03:58:39;4.80;99.90
51637;DHT22;37713;53.254;6.460;2024-01-30T04:01:05;4.90;99.90
51637;DHT22;37713;53.254;6.460;2024-01-30T04:03:31;4.90;99.90
51637;DHT22;37713;53.254;6.460;2024-01-30T04:05:57;4.90;99.90
51637;DHT22;37713;53.254;6.460;2024-01-30T04:08:23;5.00;99.90
51637;DHT22;37713;53.254;6.460;2024-01-30T04:10:49;5.00;99.90
51637;DHT22;37713;53.254;6.460;2024-01-30T04:13:14;5.10;99.90
51637;DHT22;37713;53.254;6.460;2024-01-30T04:15:40;5.10;99.90
51637;DHT22;37713;53.254;6.460;2024-01-30T04:18:06;5.10;99.90
51637;DHT22;37713;53.254;6.460;2024-01-30T04:20:32;5.20;99.90
51637;DHT22;37713;53.254;6.460;2024-01-30T04:22:57;5.20;99.90
51637;DHT22;37713;53.254;6.460;2024-01-30T04:25:23;5.20;99.90
51637;DHT22;37713;53.254;6.460;2024-01-30T04:27:49;5.20;99.90
51637;DHT22;37713;53.254;6.460;2024-01-30T04:30:15;5.20;99.90
51637;DHT22;37713;53.254;6.460;2024-01-30T04:32:40;5.30;99.90
51637;DHT22;37713;53.254;6.460;2024-01-30T04:35:06;5.30;99.90
51637;DHT22;37713;53.254;6.460;2024-01-30T04:37:32;5.40;99.90
51637;DHT22;37713;53.254;6.460;2024-01-30T04:39:58;5.40;99.90
51637;DHT22;37713;53.254;6.460;2024-01-30T04:42:24;5.40;99.90
51637;DHT22;37713;53.254;6.460;2024-01-30T04:44:50;5.50;99.90
51637;DHT22;37713;53.254;6.460;2024-01-30T04:47:16;5.50;99.90
51637;DHT22;37713;53.254;6.460;2024-01-30T04:49:42;5.50;99.90
51637;DHT22;37713;53.254;6.460;2024-01-30T04:52:08;5.60;99.90
51637;DHT22;37713;53.254;6.460;2024-01-30T04:54:35;5.60;99.90
51637;DHT22;37713;53.254;6.460;2024-01-30T04:57:01;5.60;99.90
51637;DHT22;37713;53.254;6.460;2024-01-30T04:59:27;5.70;99.90
51637;DHT22;37713;53.254;6.460;2024-01-30T05:01:53;5.70;99.90
51637;DHT22;37713;53.254;6.460;2024-01-30T05:04:19;5.70;99.90
51637;DHT22;37713;53.254;6.460;2024-01-30T05:06:45;5.80;99.90
51637;DHT22;37713;53.254;6.460;2024-01-30T05:09:10;5.80;99.90
51637;DHT22;37713;53.254;6.460;2024-01-30T05:11:40;5.90;99.90
51637;DHT22;37713;53.254;6.460;2024-01-30T05:14:07;5.90;99.90
51637;DHT22;37713;53.254;6.460;2024-01-30T05:16:33;6.00;99.90
51637;DHT22;37713;53.254;6.460;2024-01-30T05:18:59;6.00;99.90
51637;DHT22;37713;53.254;6.460;2024-01-30T05:21:25;6.00;99.90
51637;DHT22;37713;53.254;6.460;2024-01-30T05:23:50;6.10;99.90
51637;DHT22;37713;53.254;6.460;2024-01-30T05:26:16;6.10;99.90
51637;DHT22;37713;53.254;6.460;2024-01-30T05:28:42;6.10;99.90
51637;DHT22;37713;53.254;6.460;2024-01-30T05:31:10;6.10;99.90
51637;DHT22;37713;53.254;6.460;2024-01-30T05:33:36;6.10;99.90
51637;DHT22;37713;53.254;6.460;2024-01-30T05:36:02;6.10;99.90
51637;DHT22;37713;53.254;6.460;2024-01-30T05:38:29;6.20;99.90
51637;DHT22;37713;53.254;6.460;2024-01-30T05:40:55;6.20;99.90
51637;DHT22;37713;53.254;6.460;2024-01-30T05:43:20;6.20;99.90
51637;DHT22;37713;53.254;6.460;2024-01-30T05:45:46;6.10;99.90
51637;DHT22;37713;53.254;6.460;2024-01-30T05:48:12;6.20;99.90
51637;DHT22;37713;53.254;6.460;2024-01-30T05:50:38;6.20;99.90
51637;DHT22;37713;53.254;6.460;2024-01-30T05:53:04;6.20;99.90
51637;DHT22;37713;53.254;6.460;2024-01-30T05:55:30;6.30;99.90
51637;DHT22;37713;53.254;6.460;2024-01-30T05:57:55;6.30;99.90
51637;DHT22;37713;53.254;6.460;2024-01-30T06:00:21;6.30;99.90
51637;DHT22;37713;53.254;6.460;2024-01-30T06:02:47;6.30;99.90
51637;DHT22;37713;53.254;6.460;2024-01-30T06:05:13;6.30;99.90
51637;DHT22;37713;53.254;6.460;2024-01-30T06:07:38;6.30;99.90
51637;DHT22;37713;53.254;6.460;2024-01-30T06:10:04;6.40;99.90
51637;DHT22;37713;53.254;6.460;2024-01-30T06:12:30;6.40;99.90
51637;DHT22;37713;53.254;6.460;2024-01-30T06:14:56;6.40;99.90
51637;DHT22;37713;53.254;6.460;2024-01-30T06:17:23;6.40;99.90
51637;DHT22;37713;53.254;6.460;2024-01-30T06:19:49;6.40;99.90
51637;DHT22;37713;53.254;6.460;2024-01-30T06:22:15;6.50;99.90
51637;DHT22;37713;53.254;6.460;2024-01-30T06:24:41;6.50;99.90
51637;DHT22;37713;53.254;6.460;2024-01-30T06:27:07;6.50;99.90
51637;DHT22;37713;53.254;6.460;2024-01-30T06:29:33;6.50;99.90
51637;DHT22;37713;53.254;6.460;2024-01-30T06:31:59;6.50;99.90
51637;DHT22;37713;53.254;6.460;2024-01-30T06:34:25;6.50;99.90
51637;DHT22;37713;53.254;6.460;2024-01-30T06:36:52;6.50;99.90
51637;DHT22;37713;53.254;6.460;2024-01-30T06:39:17;6.50;99.90
51637;DHT22;37713;53.254;6.460;2024-01-30T06:41:43;6.50;99.90
51637;DHT22;37713;53.254;6.460;2024-01-30T06:44:12;6.50;99.90
51637;DHT22;37713;53.254;6.460;2024-01-30T06:46:38;6.50;99.90
51637;DHT22;37713;53.254;6.460;2024-01-30T06:49:04;6.50;99.90
51637;DHT22;37713;53.254;6.460;2024-01-30T06:51:36;6.60;99.90
51637;DHT22;37713;53.254;6.460;2024-01-30T06:54:02;6.60;99.90
51637;DHT22;37713;53.254;6.460;2024-01-30T06:56:28;6.60;99.90
51637;DHT22;37713;53.254;6.460;2024-01-30T06:58:54;6.60;99.90
51637;DHT22;37713;53.254;6.460;2024-01-30T07:01:20;6.70;99.90
51637;DHT22;37713;53.254;6.460;2024-01-30T07:03:46;6.80;99.90
51637;DHT22;37713;53.254;6.460;2024-01-30T07:06:12;6.80;99.90
51637;DHT22;37713;53.254;6.460;2024-01-30T07:08:38;6.80;99.90
51637;DHT22;37713;53.254;6.460;2024-01-30T07:11:06;6.90;99.90
51637;DHT22;37713;53.254;6.460;2024-01-30T07:13:34;6.90;99.90
51637;DHT22;37713;53.254;6.460;2024-01-30T07:16:00;7.00;99.90
51637;DHT22;37713;53.254;6.460;2024-01-30T07:18:26;7.00;99.90
51637;DHT22;37713;53.254;6.460;2024-01-30T07:20:51;7.00;99.90
51637;DHT22;37713;53.254;6.460;2024-01-30T07:23:17;7.10;99.90
51637;DHT22;37713;53.254;6.460;2024-01-30T07:25:44;7.10;99.90
51637;DHT22;37713;53.254;6.460;2024-01-30T07:28:10;7.10;99.90
51637;DHT22;37713;53.254;6.460;2024-01-30T07:30:37;7.10;99.90
51637;DHT22;37713;53.254;6.460;2024-01-30T07:33:04;7.20;99.90
51637;DHT22;37713;53.254;6.460;2024-01-30T07:35:30;7.20;99.90
51637;DHT22;37713;53.254;6.460;2024-01-30T07:37:56;7.20;99.90
51637;DHT22;37713;53.254;6.460;2024-01-30T07:40:22;7.20;99.90
51637;DHT22;37713;53.254;6.460;2024-01-30T07:42:48;7.20;99.90
51637;DHT22;37713;53.254;6.460;2024-01-30T07:45:14;7.20;99.90
51637;DHT22;37713;53.254;6.460;2024-01-30T07:47:40;7.20;99.90
51637;DHT22;37713;53.254;6.460;2024-01-30T07:50:06;7.20;99.90
51637;DHT22;37713;53.254;6.460;2024-01-30T07:52:32;7.30;99.90
51637;DHT22;37713;53.254;6.460;2024-01-30T07:54:58;7.30;99.90
51637;DHT22;37713;53.254;6.460;2024-01-30T07:57:24;7.30;99.90
51637;DHT22;37713;53.254;6.460;2024-01-30T07:59:50;7.30;99.90
51637;DHT22;37713;53.254;6.460;2024-01-30T08:02:16;7.30;99.90
51637;DHT22;37713;53.254;6.460;2024-01-30T08:04:41;7.30;99.90
51637;DHT22;37713;53.254;6.460;2024-01-30T08:07:07;7.30;99.90
51637;DHT22;37713;53.254;6.460;2024-01-30T08:09:33;7.30;99.90
51637;DHT22;37713;53.254;6.460;2024-01-30T08:11:59;7.30;99.90
51637;DHT22;37713;53.254;6.460;2024-01-30T08:14:25;7.40;99.90
51637;DHT22;37713;53.254;6.460;2024-01-30T08:16:51;7.40;99.90
51637;DHT22;37713;53.254;6.460;2024-01-30T08:19:17;7.40;99.90
51637;DHT22;37713;53.254;6.460;2024-01-30T08:21:43;7.40;99.90
51637;DHT22;37713;53.254;6.460;2024-01-30T08:24:09;7.40;99.90
51637;DHT22;37713;53.254;6.460;2024-01-30T08:26:35;7.30;99.90
51637;DHT22;37713;53.254;6.460;2024-01-30T08:29:04;7.40;99.90
51637;DHT22;37713;53.254;6.460;2024-01-30T08:31:29;7.40;99.90
51637;DHT22;37713;53.254;6.460;2024-01-30T08:33:55;7.40;99.90
51637;DHT22;37713;53.254;6.460;2024-01-30T08:36:21;7.40;99.90
51637;DHT22;37713;53.254;6.460;2024-01-30T08:38:47;7.40;99.90
51637;DHT22;37713;53.254;6.460;2024-01-30T08:41:12;7.50;99.90
51637;DHT22;37713;53.254;6.460;2024-01-30T08:43:38;7.50;99.90
51637;DHT22;37713;53.254;6.460;2024-01-30T08:46:04;7.60;99.90
51637;DHT22;37713;53.254;6.460;2024-01-30T08:48:30;7.60;99.90
51637;DHT22;37713;53.254;6.460;2024-01-30T08:50:55;7.60;99.90
51637;DHT22;37713;53.254;6.460;2024-01-30T08:53:22;7.70;99.90
51637;DHT22;37713;53.254;6.460;2024-01-30T08:55:48;7.70;99.90
51637;DHT22;37713;53.254;6.460;2024-01-30T08:58:13;7.80;99.90
51637;DHT22;37713;53.254;6.460;2024-01-30T09:00:40;7.80;99.90
51637;DHT22;37713;53.254;6.460;2024-01-30T09:03:06;7.90;99.90
51637;DHT22;37713;53.254;6.460;2024-01-30T09:05:32;7.90;99.90
51637;DHT22;37713;53.254;6.460;2024-01-30T09:07:58;8.00;99.90
51637;DHT22;37713;53.254;6.460;2024-01-30T09:10:23;8.00;99.90
51637;DHT22;37713;53.254;6.460;2024-01-30T09:12:49;8.10;99.90
51637;DHT22;37713;53.254;6.460;2024-01-30T09:15:15;8.10;99.90
51637;DHT22;37713;53.254;6.460;2024-01-30T09:17:41;8.20;99.90
51637;DHT22;37713;53.254;6.460;2024-01-30T09:20:07;8.20;99.90
51637;DHT22;37713;53.254;6.460;2024-01-30T09:22:34;8.30;99.90
51637;DHT22;37713;53.254;6.460;2024-01-30T09:25:00;8.30;99.90
51637;DHT22;37713;53.254;6.460;2024-01-30T09:27:26;8.40;99.90
51637;DHT22;37713;53.254;6.460;2024-01-30T09:29:51;8.50;99.90
51637;DHT22;37713;53.254;6.460;2024-01-30T09:32:17;8.50;99.90
51637;DHT22;37713;53.254;6.460;2024-01-30T09:34:44;8.60;99.90
51637;DHT22;37713;53.254;6.460;2024-01-30T09:37:09;8.70;99.90
51637;DHT22;37713;53.254;6.460;2024-01-30T09:39:35;8.80;99.90
51637;DHT22;37713;53.254;6.460;2024-01-30T09:42:05;8.90;99.90
51637;DHT22;37713;53.254;6.460;2024-01-30T09:44:35;8.90;99.90
51637;DHT22;37713;53.254;6.460;2024-01-30T09:47:02;9.00;99.90
51637;DHT22;37713;53.254;6.460;2024-01-30T09:49:34;9.00;99.90
51637;DHT22;37713;53.254;6.460;2024-01-30T09:52:02;9.00;99.90
51637;DHT22;37713;53.254;6.460;2024-01-30T09:54:31;9.10;99.90
51637;DHT22;37713;53.254;6.460;2024-01-30T09:56:57;9.10;99.90
51637;DHT22;37713;53.254;6.460;2024-01-30T09:59:24;9.10;99.90
51637;DHT22;37713;53.254;6.460;2024-01-30T10:01:50;9.10;99.90
51637;DHT22;37713;53.254;6.460;2024-01-30T10:04:17;9.10;99.90
51637;DHT22;37713;53.254;6.460;2024-01-30T10:06:43;9.10;99.90
51637;DHT22;37713;53.254;6.460;2024-01-30T10:09:08;9.20;99.90
51637;DHT22;37713;53.254;6.460;2024-01-30T10:11:36;9.20;99.90
51637;DHT22;37713;53.254;6.460;2024-01-30T10:14:02;9.20;99.90
51637;DHT22;37713;53.254;6.460;2024-01-30T10:16:27;9.30;99.90
51637;DHT22;37713;53.254;6.460;2024-01-30T10:18:53;9.30;99.90
51637;DHT22;37713;53.254;6.460;2024-01-30T10:21:19;9.30;99.90
51637;DHT22;37713;53.254;6.460;2024-01-30T10:23:45;9.30;99.90
51637;DHT22;37713;53.254;6.460;2024-01-30T10:26:10;9.30;99.90
51637;DHT22;37713;53.254;6.460;2024-01-30T10:28:37;9.30;99.90
51637;DHT22;37713;53.254;6.460;2024-01-30T10:31:03;9.30;99.90
51637;DHT22;37713;53.254;6.460;2024-01-30T10:33:30;9.30;99.90
51637;DHT22;37713;53.254;6.460;2024-01-30T10:36:05;9.30;99.90
51637;DHT22;37713;53.254;6.460;2024-01-30T10:38:32;9.30;99.90
51637;DHT22;37713;53.254;6.460;2024-01-30T10:40:59;9.30;99.90
51637;DHT22;37713;53.254;6.460;2024-01-30T10:43:32;9.30;99.90
51637;DHT22;37713;53.254;6.460;2024-01-30T10:46:19;9.30;99.90
51637;DHT22;37713;53.254;6.460;2024-01-30T10:48:50;9.30;99.90
51637;DHT22;37713;53.254;6.460;2024-01-30T10:51:16;9.40;99.90
51637;DHT22;37713;53.254;6.460;2024-01-30T10:53:46;9.40;99.90
51637;DHT22;37713;53.254;6.460;2024-01-30T10:56:12;9.40;99.90
51637;DHT22;37713;53.254;6.460;2024-01-30T10:58:38;9.40;99.90
51637;DHT22;37713;53.254;6.460;2024-01-30T11:01:05;9.50;99.90
51637;DHT22;37713;53.254;6.460;2024-01-30T11:03:33;9.50;99.90
51637;DHT22;37713;53.254;6.460;2024-01-30T11:06:02;9.50;99.90
51637;DHT22;37713;53.254;6.460;2024-01-30T11:08:28;9.50;99.90
51637;DHT22;37713;53.254;6.460;2024-01-30T11:10:58;9.50;99.90
51637;DHT22;37713;53.254;6.460;2024-01-30T11:13:30;9.50;99.90
51637;DHT22;37713;53.254;6.460;2024-01-30T11:16:04;9.60;99.90
51637;DHT22;37713;53.254;6.460;2024-01-30T11:18:31;9.60;99.90
51637;DHT22;37713;53.254;6.460;2024-01-30T11:21:00;9.60;99.90
51637;DHT22;37713;53.254;6.460;2024-01-30T11:23:28;9.60;99.90
51637;DHT22;37713;53.254;6.460;2024-01-30T11:25:55;9.60;99.90
51637;DHT22;37713;53.254;6.460;2024-01-30T11:28:22;9.50;99.90
51637;DHT22;37713;53.254;6.460;2024-01-30T11:30:48;9.60;99.90
51637;DHT22;37713;53.254;6.460;2024-01-30T11:33:30;9.60;99.90
51637;DHT22;37713;53.254;6.460;2024-01-30T11:35:59;9.50;99.90
51637;DHT22;37713;53.254;6.460;2024-01-30T11:38:28;9.50;99.90
51637;DHT22;37713;53.254;6.460;2024-01-30T11:40:55;9.60;99.90
51637;DHT22;37713;53.254;6.460;2024-01-30T11:43:24;9.60;99.90
51637;DHT22;37713;53.254;6.460;2024-01-30T11:45:50;9.60;99.90
51637;DHT22;37713;53.254;6.460;2024-01-30T11:48:17;9.60;99.90
51637;DHT22;37713;53.254;6.460;2024-01-30T11:50:43;9.70;99.90
51637;DHT22;37713;53.254;6.460;2024-01-30T11:53:12;9.70;99.90
51637;DHT22;37713;53.254;6.460;2024-01-30T11:55:38;9.60;99.90
51637;DHT22;37713;53.254;6.460;2024-01-30T11:58:04;9.60;99.90
51637;DHT22;37713;53.254;6.460;2024-01-30T12:00:30;9.60;99.90
51637;DHT22;37713;53.254;6.460;2024-01-30T12:02:59;9.50;99.90
51637;DHT22;37713;53.254;6.460;2024-01-30T12:05:26;9.50;99.90
51637;DHT22;37713;53.254;6.460;2024-01-30T12:07:53;9.40;99.90
51637;DHT22;37713;53.254;6.460;2024-01-30T12:10:19;9.40;99.90
51637;DHT22;37713;53.254;6.460;2024-01-30T12:12:52;9.30;99.90
51637;DHT22;37713;53.254;6.460;2024-01-30T12:15:18;9.30;99.90
51637;DHT22;37713;53.254;6.460;2024-01-30T12:17:47;9.30;99.90
51637;DHT22;37713;53.254;6.460;2024-01-30T12:20:18;9.30;99.90
51637;DHT22;37713;53.254;6.460;2024-01-30T12:22:46;9.30;99.90
51637;DHT22;37713;53.254;6.460;2024-01-30T12:25:16;9.30;99.90
51637;DHT22;37713;53.254;6.460;2024-01-30T12:27:44;9.30;99.90
51637;DHT22;37713;53.254;6.460;2024-01-30T12:30:11;9.30;99.90
51637;DHT22;37713;53.254;6.460;2024-01-30T12:32:46;9.20;99.90
51637;DHT22;37713;53.254;6.460;2024-01-30T12:35:15;9.20;99.90
51637;DHT22;37713;53.254;6.460;2024-01-30T12:37:42;9.20;99.90
51637;DHT22;37713;53.254;6.460;2024-01-30T12:40:09;9.20;99.90
51637;DHT22;37713;53.254;6.460;2024-01-30T12:42:35;9.30;99.90
51637;DHT22;37713;53.254;6.460;2024-01-30T12:45:05;9.30;99.90
51637;DHT22;37713;53.254;6.460;2024-01-30T12:47:31;9.40;99.90
51637;DHT22;37713;53.254;6.460;2024-01-30T12:49:57;9.40;99.90
51637;DHT22;37713;53.254;6.460;2024-01-30T12:52:23;9.40;99.90
51637;DHT22;37713;53.254;6.460;2024-01-30T12:54:49;9.50;99.90
51637;DHT22;37713;53.254;6.460;2024-01-30T12:57:15;9.50;99.90
51637;DHT22;37713;53.254;6.460;2024-01-30T12:59:42;9.50;99.90
51637;DHT22;37713;53.254;6.460;2024-01-30T13:02:09;9.50;99.90
51637;DHT22;37713;53.254;6.460;2024-01-30T13:04:35;9.60;99.90
51637;DHT22;37713;53.254;6.460;2024-01-30T13:07:01;9.50;99.90
51637;DHT22;37713;53.254;6.460;2024-01-30T13:09:27;9.70;99.90
51637;DHT22;37713;53.254;6.460;2024-01-30T13:11:53;9.70;99.90
51637;DHT22;37713;53.254;6.460;2024-01-30T13:14:19;9.70;99.90
51637;DHT22;37713;53.254;6.460;2024-01-30T13:16:45;9.70;99.90
51637;DHT22;37713;53.254;6.460;2024-01-30T13:19:11;9.70;99.90
51637;DHT22;37713;53.254;6.460;2024-01-30T13:21:40;9.70;99.90
51637;DHT22;37713;53.254;6.460;2024-01-30T13:24:06;9.60;99.90
51637;DHT22;37713;53.254;6.460;2024-01-30T13:26:32;9.60;99.90
51637;DHT22;37713;53.254;6.460;2024-01-30T13:28:58;9.50;99.90
51637;DHT22;37713;53.254;6.460;2024-01-30T13:31:24;9.40;99.90
51637;DHT22;37713;53.254;6.460;2024-01-30T13:33:50;9.40;99.90
51637;DHT22;37713;53.254;6.460;2024-01-30T13:36:16;9.40;99.90
51637;DHT22;37713;53.254;6.460;2024-01-30T13:38:42;9.30;99.90
51637;DHT22;37713;53.254;6.460;2024-01-30T13:41:08;9.30;99.90
51637;DHT22;37713;53.254;6.460;2024-01-30T13:43:33;9.20;99.90
51637;DHT22;37713;53.254;6.460;2024-01-30T13:45:59;9.20;99.90
51637;DHT22;37713;53.254;6.460;2024-01-30T13:48:25;9.20;99.90
51637;DHT22;37713;53.254;6.460;2024-01-30T13:50:51;9.10;99.90
51637;DHT22;37713;53.254;6.460;2024-01-30T13:53:17;9.10;99.90
51637;DHT22;37713;53.254;6.460;2024-01-30T13:55:43;9.10;99.90
51637;DHT22;37713;53.254;6.460;2024-01-30T13:58:08;9.10;99.90
51637;DHT22;37713;53.254;6.460;2024-01-30T14:00:34;9.10;99.90
51637;DHT22;37713;53.254;6.460;2024-01-30T14:03:00;9.10;99.90
51637;DHT22;37713;53.254;6.460;2024-01-30T14:05:29;9.10;99.90
51637;DHT22;37713;53.254;6.460;2024-01-30T14:07:54;9.10;99.90
51637;DHT22;37713;53.254;6.460;2024-01-30T14:10:21;9.10;99.90
51637;DHT22;37713;53.254;6.460;2024-01-30T14:12:47;9.10;99.90
51637;DHT22;37713;53.254;6.460;2024-01-30T14:15:15;9.10;99.90
51637;DHT22;37713;53.254;6.460;2024-01-30T14:17:44;9.20;99.90
51637;DHT22;37713;53.254;6.460;2024-01-30T14:20:11;9.20;99.90
51637;DHT22;37713;53.254;6.460;2024-01-30T14:22:36;9.10;99.90
51637;DHT22;37713;53.254;6.460;2024-01-30T14:25:03;9.10;99.90
51637;DHT22;37713;53.254;6.460;2024-01-30T14:27:30;9.10;99.90
51637;DHT22;37713;53.254;6.460;2024-01-30T14:29:56;9.00;99.90
51637;DHT22;37713;53.254;6.460;2024-01-30T14:32:23;9.00;99.90
51637;DHT22;37713;53.254;6.460;2024-01-30T14:34:49;9.00;99.90
51637;DHT22;37713;53.254;6.460;2024-01-30T14:37:15;9.00;99.90
51637;DHT22;37713;53.254;6.460;2024-01-30T14:39:42;8.90;99.90
51637;DHT22;37713;53.254;6.460;2024-01-30T14:42:07;8.90;99.90
51637;DHT22;37713;53.254;6.460;2024-01-30T14:44:33;8.80;99.90
51637;DHT22;37713;53.254;6.460;2024-01-30T14:47:00;8.80;99.90
51637;DHT22;37713;53.254;6.460;2024-01-30T14:49:26;8.80;99.90
51637;DHT22;37713;53.254;6.460;2024-01-30T14:51:51;8.70;99.90
51637;DHT22;37713;53.254;6.460;2024-01-30T14:54:17;8.70;99.90
51637;DHT22;37713;53.254;6.460;2024-01-30T14:56:44;8.70;99.90
51637;DHT22;37713;53.254;6.460;2024-01-30T14:59:10;8.60;99.90
51637;DHT22;37713;53.254;6.460;2024-01-30T15:01:36;8.60;99.90
51637;DHT22;37713;53.254;6.460;2024-01-30T15:04:02;8.60;99.90
51637;DHT22;37713;53.254;6.460;2024-01-30T15:06:28;8.50;99.90
51637;DHT22;37713;53.254;6.460;2024-01-30T15:08:54;8.50;99.90
51637;DHT22;37713;53.254;6.460;2024-01-30T15:11:20;8.50;99.90
51637;DHT22;37713;53.254;6.460;2024-01-30T15:13:46;8.50;99.90
51637;DHT22;37713;53.254;6.460;2024-01-30T15:16:12;8.40;99.90
51637;DHT22;37713;53.254;6.460;2024-01-30T15:18:38;8.40;99.90
51637;DHT22;37713;53.254;6.460;2024-01-30T15:21:04;8.40;99.90
51637;DHT22;37713;53.254;6.460;2024-01-30T15:23:29;8.40;99.90
51637;DHT22;37713;53.254;6.460;2024-01-30T15:25:55;8.40;99.90
51637;DHT22;37713;53.254;6.460;2024-01-30T15:28:37;8.40;99.90
51637;DHT22;37713;53.254;6.460;2024-01-30T15:31:07;8.40;99.90
51637;DHT22;37713;53.254;6.460;2024-01-30T15:33:33;8.30;99.90
51637;DHT22;37713;53.254;6.460;2024-01-30T15:36:00;8.30;99.90
51637;DHT22;37713;53.254;6.460;2024-01-30T15:38:26;8.30;99.90
51637;DHT22;37713;53.254;6.460;2024-01-30T15:40:53;8.30;99.90